Dades de l'estació automàtica Castellnou de Seana
Resum diari
19:30 TU| Temperatura mitjana | 27.8 °C | |
|---|---|---|
| Temperatura màxima | 37.6 °C | 15:07 TU |
| Temperatura mínima | 17.8 °C | 5:23 TU |
| Humitat relativa mitjana | 63% | |
| Precipitació acumulada | 0.0 mm | |
| Ratxa màxima del vent (10 m) | 27.7 km/h - 277º | 14:13 TU |
| Pressió atmosfèrica mitjana | 1018.9 hPa | |
| Irradiació solar global | 22.7 MJ/m2 | |
El tram horari està expressat en Temps Universal (TU). Cal sumar una hora en horari d'hivern i dues en horari d'estiu per passar a l'hora oficial.
Castellnou de Seana
| Municipi | Castellnou de Seana |
|---|---|
| Comarca | Pla d'Urgell |
| Altitud | 264 m |
| Data alta | 16.12.1995 |
| Estat actual | Operativa |
| Període TU |
TM °C |
TX °C |
TN °C |
HRM % |
PPT mm |
VVM (10 m) km/h |
DVM (10 m) graus |
VVX (10 m) km/h |
PM hPa |
RS W/m2 |
|---|---|---|---|---|---|---|---|---|---|---|
| 00:00 - 00:30 | 20.8 | 20.9 | 20.6 | 90 | 0.0 | 5.0 | 87 | 7.6 | 1021.6 | 0 |
| 00:30 - 01:00 | 20.4 | 20.7 | 20.2 | 92 | 0.0 | 5.0 | 103 | 7.2 | 1021.6 | 0 |
| 01:00 - 01:30 | 20.3 | 20.4 | 20.0 | 93 | 0.0 | 5.0 | 92 | 7.2 | 1021.3 | 0 |
| 01:30 - 02:00 | 20.4 | 20.6 | 20.3 | 93 | 0.0 | 5.8 | 103 | 8.6 | 1021.2 | 0 |
| 02:00 - 02:30 | 20.0 | 20.3 | 19.6 | 93 | 0.0 | 5.8 | 99 | 7.6 | 1021.1 | 0 |
| 02:30 - 03:00 | 19.5 | 19.7 | 19.3 | 94 | 0.0 | 3.6 | 91 | 6.1 | 1021.0 | 0 |
| 03:00 - 03:30 | 19.2 | 19.3 | 19.1 | 94 | 0.0 | 5.0 | 75 | 6.5 | 1020.9 | 0 |
| 03:30 - 04:00 | 19.1 | 19.1 | 19.0 | 94 | 0.0 | 4.7 | 101 | 6.1 | 1020.8 | 0 |
| 04:00 - 04:30 | 19.0 | 19.0 | 18.9 | 94 | 0.0 | 5.8 | 124 | 7.6 | 1020.8 | 0 |
| 04:30 - 05:00 | 18.7 | 19.0 | 18.5 | 94 | 0.0 | 4.7 | 148 | 6.5 | 1020.8 | 0 |
| 05:00 - 05:30 | 18.1 | 18.5 | 17.8 | 96 | 0.0 | 2.9 | 140 | 4.3 | 1020.7 | 0 |
| 05:30 - 06:00 | 18.3 | 18.8 | 18.0 | 96 | 0.0 | 3.6 | 136 | 5.8 | 1020.7 | 28 |
| 06:00 - 06:30 | 19.9 | 21.1 | 18.9 | 90 | 0.0 | 2.2 | 121 | 4.7 | 1020.7 | 94 |
| 06:30 - 07:00 | 21.8 | 22.8 | 21.1 | 82 | 0.0 | 2.2 | 90 | 4.0 | 1020.6 | 182 |
| 07:00 - 07:30 | 23.6 | 24.6 | 22.9 | 76 | 0.0 | 1.8 | 161 | 4.0 | 1020.5 | 280 |
| 07:30 - 08:00 | 24.8 | 25.4 | 24.3 | 74 | 0.0 | 1.8 | 188 | 5.0 | 1020.4 | 379 |
| 08:00 - 08:30 | 26.2 | 27.0 | 25.4 | 68 | 0.0 | 1.8 | 181 | 5.0 | 1020.2 | 470 |
| 08:30 - 09:00 | 27.5 | 28.4 | 27.0 | 61 | 0.0 | 4.0 | 254 | 10.4 | 1020.2 | 555 |
| 09:00 - 09:30 | 28.8 | 29.3 | 28.2 | 58 | 0.0 | 4.3 | 272 | 10.8 | 1020.1 | 635 |
| 09:30 - 10:00 | 29.8 | 30.4 | 29.2 | 55 | 0.0 | 3.2 | 237 | 10.8 | 1020.0 | 699 |
| 10:00 - 10:30 | 31.0 | 32.1 | 30.5 | 53 | 0.0 | 7.9 | 219 | 14.0 | 1019.6 | 756 |
| 10:30 - 11:00 | 31.9 | 33.0 | 31.2 | 51 | 0.0 | 6.8 | 234 | 15.8 | 1019.2 | 794 |
| 11:00 - 11:30 | 32.7 | 33.4 | 32.3 | 48 | 0.0 | 8.3 | 242 | 15.8 | 1018.9 | 819 |
| 11:30 - 12:00 | 33.8 | 34.9 | 33.2 | 46 | 0.0 | 10.1 | 244 | 16.9 | 1018.4 | 828 |
| 12:00 - 12:30 | 34.9 | 35.5 | 33.8 | 41 | 0.0 | 11.5 | 259 | 18.4 | 1018.0 | 829 |
| 12:30 - 13:00 | 35.9 | 36.6 | 35.0 | 35 | 0.0 | 12.2 | 272 | 20.9 | 1017.8 | 807 |
| 13:00 - 13:30 | 35.8 | 36.2 | 35.2 | 36 | 0.0 | 11.9 | 260 | 20.2 | 1017.5 | 777 |
| 13:30 - 14:00 | 36.3 | 37.3 | 35.6 | 32 | 0.0 | 13.3 | 260 | 25.2 | 1017.1 | 730 |
| 14:00 - 14:30 | 36.5 | 37.1 | 35.9 | 30 | 0.0 | 13.7 | 262 | 27.7 | 1016.7 | 676 |
| 14:30 - 15:00 | 36.8 | 37.3 | 36.1 | 28 | 0.0 | 13.0 | 260 | 22.3 | 1016.5 | 602 |
| 15:00 - 15:30 | 37.1 | 37.6 | 36.6 | 28 | 0.0 | 13.7 | 262 | 25.2 | 1016.0 | 515 |
| 15:30 - 16:00 | 36.9 | 37.3 | 36.2 | 28 | 0.0 | 13.3 | 263 | 22.7 | 1015.9 | 420 |
| 16:00 - 16:30 | 36.8 | 37.5 | 36.2 | 28 | 0.0 | 10.8 | 259 | 17.6 | 1015.8 | 332 |
| 16:30 - 17:00 | 36.2 | 36.4 | 36.0 | 29 | 0.0 | 7.9 | 245 | 12.6 | 1015.6 | 236 |
| 17:00 - 17:30 | 35.8 | 36.3 | 34.2 | 33 | 0.0 | 5.4 | 224 | 9.0 | 1015.7 | 137 |
| 17:30 - 18:00 | 31.8 | 34.2 | 30.1 | 47 | 0.0 | 6.8 | 173 | 10.8 | 1016.4 | 54 |
| 18:00 - 18:30 | 29.3 | 29.8 | 29.1 | 52 | 0.0 | 10.1 | 149 | 14.0 | 1016.8 | 6 |
| 18:30 - 19:00 | 29.1 | 29.5 | 28.5 | 51 | 0.0 | 13.7 | 131 | 19.8 | 1017.0 | 0 |
| 19:00 - 19:30 | 28.6 | 29.2 | 27.9 | 59 | 0.0 | 13.0 | 134 | 20.9 | 1017.3 | 0 |
| 19:30 - 20:00 | 27.7 | 27.9 | 27.4 | 60 | 0.0 | 11.9 | 130 | 18.4 | 1017.7 | 0 |
Les dades en taronja només han passat un control de qualitat automàtic. Resta pendent la seva validació definitiva.